sensor_id;sensor_type;location;lat;lon;timestamp;P1;durP1;ratioP1;P2;durP2;ratioP2
76761;SDS011;65705;51.032;13.790;2023-05-13T00:01:27;9.18;;;5.05;;
76761;SDS011;65705;51.032;13.790;2023-05-13T00:03:52;9.45;;;5.30;;
76761;SDS011;65705;51.032;13.790;2023-05-13T00:06:18;7.10;;;4.80;;
76761;SDS011;65705;51.032;13.790;2023-05-13T00:08:44;8.27;;;5.20;;
76761;SDS011;65705;51.032;13.790;2023-05-13T00:11:10;9.48;;;5.03;;
76761;SDS011;65705;51.032;13.790;2023-05-13T00:13:35;7.28;;;4.88;;
76761;SDS011;65705;51.032;13.790;2023-05-13T00:16:02;7.65;;;4.88;;
76761;SDS011;65705;51.032;13.790;2023-05-13T00:18:28;8.73;;;6.05;;
76761;SDS011;65705;51.032;13.790;2023-05-13T00:20:54;7.65;;;4.63;;
76761;SDS011;65705;51.032;13.790;2023-05-13T00:23:20;7.85;;;4.82;;
76761;SDS011;65705;51.032;13.790;2023-05-13T00:25:46;9.05;;;5.03;;
76761;SDS011;65705;51.032;13.790;2023-05-13T00:28:12;9.90;;;5.43;;
76761;SDS011;65705;51.032;13.790;2023-05-13T00:30:40;9.27;;;5.28;;
76761;SDS011;65705;51.032;13.790;2023-05-13T00:33:08;8.48;;;5.30;;
76761;SDS011;65705;51.032;13.790;2023-05-13T00:35:34;8.95;;;4.72;;
76761;SDS011;65705;51.032;13.790;2023-05-13T00:38:00;7.55;;;4.68;;
76761;SDS011;65705;51.032;13.790;2023-05-13T00:40:25;11.65;;;4.95;;
76761;SDS011;65705;51.032;13.790;2023-05-13T00:42:53;12.07;;;4.85;;
76761;SDS011;65705;51.032;13.790;2023-05-13T00:45:19;7.72;;;5.20;;
76761;SDS011;65705;51.032;13.790;2023-05-13T00:47:46;9.02;;;5.20;;
76761;SDS011;65705;51.032;13.790;2023-05-13T00:50:13;9.90;;;5.40;;
76761;SDS011;65705;51.032;13.790;2023-05-13T00:52:39;9.75;;;5.38;;
76761;SDS011;65705;51.032;13.790;2023-05-13T00:55:07;11.10;;;5.65;;
76761;SDS011;65705;51.032;13.790;2023-05-13T00:57:34;10.00;;;5.45;;
76761;SDS011;65705;51.032;13.790;2023-05-13T01:00:00;9.55;;;5.22;;
76761;SDS011;65705;51.032;13.790;2023-05-13T01:02:42;7.90;;;4.97;;
76761;SDS011;65705;51.032;13.790;2023-05-13T01:08:29;9.23;;;5.38;;
76761;SDS011;65705;51.032;13.790;2023-05-13T01:11:03;9.20;;;5.10;;
76761;SDS011;65705;51.032;13.790;2023-05-13T01:13:38;12.40;;;5.55;;
76761;SDS011;65705;51.032;13.790;2023-05-13T01:18:48;8.15;;;4.43;;
76761;SDS011;65705;51.032;13.790;2023-05-13T01:21:22;8.35;;;4.45;;
76761;SDS011;65705;51.032;13.790;2023-05-13T01:23:50;9.68;;;4.75;;
76761;SDS011;65705;51.032;13.790;2023-05-13T01:26:15;7.43;;;5.07;;
76761;SDS011;65705;51.032;13.790;2023-05-13T01:28:41;11.25;;;4.82;;
76761;SDS011;65705;51.032;13.790;2023-05-13T01:31:07;11.25;;;5.28;;
76761;SDS011;65705;51.032;13.790;2023-05-13T01:33:35;8.30;;;5.00;;
76761;SDS011;65705;51.032;13.790;2023-05-13T01:36:02;8.15;;;4.75;;
76761;SDS011;65705;51.032;13.790;2023-05-13T01:38:29;7.07;;;4.53;;
76761;SDS011;65705;51.032;13.790;2023-05-13T01:40:57;9.00;;;4.80;;
76761;SDS011;65705;51.032;13.790;2023-05-13T01:43:23;7.78;;;4.43;;
76761;SDS011;65705;51.032;13.790;2023-05-13T01:45:49;9.98;;;4.75;;
76761;SDS011;65705;51.032;13.790;2023-05-13T01:48:15;11.10;;;4.55;;
76761;SDS011;65705;51.032;13.790;2023-05-13T01:50:45;11.27;;;4.50;;
76761;SDS011;65705;51.032;13.790;2023-05-13T01:53:11;8.32;;;4.45;;
76761;SDS011;65705;51.032;13.790;2023-05-13T01:55:37;7.65;;;4.35;;
76761;SDS011;65705;51.032;13.790;2023-05-13T01:58:04;8.18;;;4.60;;
76761;SDS011;65705;51.032;13.790;2023-05-13T02:00:29;7.93;;;4.60;;
76761;SDS011;65705;51.032;13.790;2023-05-13T02:02:55;6.38;;;4.40;;
76761;SDS011;65705;51.032;13.790;2023-05-13T02:05:21;10.45;;;5.20;;
76761;SDS011;65705;51.032;13.790;2023-05-13T02:07:47;8.02;;;4.40;;
76761;SDS011;65705;51.032;13.790;2023-05-13T02:10:13;7.28;;;4.63;;
76761;SDS011;65705;51.032;13.790;2023-05-13T02:12:39;9.93;;;4.97;;
76761;SDS011;65705;51.032;13.790;2023-05-13T02:15:05;7.47;;;4.50;;
76761;SDS011;65705;51.032;13.790;2023-05-13T02:17:31;10.77;;;4.55;;
76761;SDS011;65705;51.032;13.790;2023-05-13T02:19:57;8.38;;;4.53;;
76761;SDS011;65705;51.032;13.790;2023-05-13T02:22:22;9.63;;;4.82;;
76761;SDS011;65705;51.032;13.790;2023-05-13T02:24:48;11.20;;;4.70;;
76761;SDS011;65705;51.032;13.790;2023-05-13T02:27:14;6.93;;;4.35;;
76761;SDS011;65705;51.032;13.790;2023-05-13T02:29:41;8.27;;;4.53;;
76761;SDS011;65705;51.032;13.790;2023-05-13T02:32:07;8.93;;;5.10;;
76761;SDS011;65705;51.032;13.790;2023-05-13T02:34:32;9.48;;;5.45;;
76761;SDS011;65705;51.032;13.790;2023-05-13T02:36:58;11.70;;;4.45;;
76761;SDS011;65705;51.032;13.790;2023-05-13T02:39:24;7.50;;;4.43;;
76761;SDS011;65705;51.032;13.790;2023-05-13T02:41:51;9.38;;;4.85;;
76761;SDS011;65705;51.032;13.790;2023-05-13T02:44:17;9.25;;;5.45;;
76761;SDS011;65705;51.032;13.790;2023-05-13T02:46:44;7.40;;;4.97;;
76761;SDS011;65705;51.032;13.790;2023-05-13T02:49:10;8.20;;;4.28;;
76761;SDS011;65705;51.032;13.790;2023-05-13T02:51:35;9.00;;;4.82;;
76761;SDS011;65705;51.032;13.790;2023-05-13T02:54:02;9.70;;;4.88;;
76761;SDS011;65705;51.032;13.790;2023-05-13T02:56:29;8.05;;;4.47;;
76761;SDS011;65705;51.032;13.790;2023-05-13T02:58:54;10.10;;;4.60;;
76761;SDS011;65705;51.032;13.790;2023-05-13T03:01:20;7.20;;;4.15;;
76761;SDS011;65705;51.032;13.790;2023-05-13T03:03:46;9.52;;;4.75;;
76761;SDS011;65705;51.032;13.790;2023-05-13T03:06:12;10.43;;;4.70;;
76761;SDS011;65705;51.032;13.790;2023-05-13T03:08:38;8.52;;;4.35;;
76761;SDS011;65705;51.032;13.790;2023-05-13T03:11:04;7.43;;;4.55;;
76761;SDS011;65705;51.032;13.790;2023-05-13T03:13:31;9.05;;;4.93;;
76761;SDS011;65705;51.032;13.790;2023-05-13T03:15:56;8.35;;;4.55;;
76761;SDS011;65705;51.032;13.790;2023-05-13T03:18:22;8.88;;;4.65;;
76761;SDS011;65705;51.032;13.790;2023-05-13T03:20:49;10.93;;;5.10;;
76761;SDS011;65705;51.032;13.790;2023-05-13T03:23:14;7.55;;;4.68;;
76761;SDS011;65705;51.032;13.790;2023-05-13T03:25:42;8.10;;;4.75;;
76761;SDS011;65705;51.032;13.790;2023-05-13T03:28:08;7.85;;;4.43;;
76761;SDS011;65705;51.032;13.790;2023-05-13T03:30:37;7.70;;;4.45;;
76761;SDS011;65705;51.032;13.790;2023-05-13T03:33:11;11.15;;;4.28;;
76761;SDS011;65705;51.032;13.790;2023-05-13T03:35:37;7.50;;;4.47;;
76761;SDS011;65705;51.032;13.790;2023-05-13T03:38:03;7.43;;;4.40;;
76761;SDS011;65705;51.032;13.790;2023-05-13T03:40:30;8.77;;;4.90;;
76761;SDS011;65705;51.032;13.790;2023-05-13T03:42:56;7.03;;;4.20;;
76761;SDS011;65705;51.032;13.790;2023-05-13T03:45:22;6.72;;;4.05;;
76761;SDS011;65705;51.032;13.790;2023-05-13T03:47:51;6.93;;;4.13;;
76761;SDS011;65705;51.032;13.790;2023-05-13T03:50:18;8.13;;;4.40;;
76761;SDS011;65705;51.032;13.790;2023-05-13T03:52:45;8.93;;;4.20;;
76761;SDS011;65705;51.032;13.790;2023-05-13T03:55:11;8.98;;;4.03;;
76761;SDS011;65705;51.032;13.790;2023-05-13T03:57:40;9.30;;;4.20;;
76761;SDS011;65705;51.032;13.790;2023-05-13T04:00:08;9.80;;;4.10;;
76761;SDS011;65705;51.032;13.790;2023-05-13T04:02:40;9.68;;;3.95;;
76761;SDS011;65705;51.032;13.790;2023-05-13T04:05:06;7.15;;;4.00;;
76761;SDS011;65705;51.032;13.790;2023-05-13T04:07:33;7.63;;;4.32;;
76761;SDS011;65705;51.032;13.790;2023-05-13T04:09:59;5.93;;;3.78;;
76761;SDS011;65705;51.032;13.790;2023-05-13T04:12:25;16.20;;;4.40;;
76761;SDS011;65705;51.032;13.790;2023-05-13T04:14:51;8.50;;;4.25;;
76761;SDS011;65705;51.032;13.790;2023-05-13T04:17:17;8.55;;;4.00;;
76761;SDS011;65705;51.032;13.790;2023-05-13T04:19:42;8.57;;;4.07;;
76761;SDS011;65705;51.032;13.790;2023-05-13T04:22:08;9.25;;;4.18;;
76761;SDS011;65705;51.032;13.790;2023-05-13T04:24:34;7.32;;;3.88;;
76761;SDS011;65705;51.032;13.790;2023-05-13T04:27:00;7.68;;;3.95;;
76761;SDS011;65705;51.032;13.790;2023-05-13T04:29:27;10.20;;;3.83;;
76761;SDS011;65705;51.032;13.790;2023-05-13T04:31:53;6.35;;;3.83;;
76761;SDS011;65705;51.032;13.790;2023-05-13T04:34:18;21.27;;;4.60;;
76761;SDS011;65705;51.032;13.790;2023-05-13T04:36:45;5.00;;;3.33;;
76761;SDS011;65705;51.032;13.790;2023-05-13T04:39:13;6.32;;;3.97;;
76761;SDS011;65705;51.032;13.790;2023-05-13T04:41:38;6.38;;;3.67;;
76761;SDS011;65705;51.032;13.790;2023-05-13T04:44:04;6.82;;;3.90;;
76761;SDS011;65705;51.032;13.790;2023-05-13T04:46:31;6.03;;;3.53;;
76761;SDS011;65705;51.032;13.790;2023-05-13T04:48:57;7.97;;;3.60;;
76761;SDS011;65705;51.032;13.790;2023-05-13T04:51:23;8.98;;;4.18;;
76761;SDS011;65705;51.032;13.790;2023-05-13T04:53:49;6.93;;;3.72;;
76761;SDS011;65705;51.032;13.790;2023-05-13T04:56:15;6.68;;;3.63;;
76761;SDS011;65705;51.032;13.790;2023-05-13T04:58:42;8.65;;;3.70;;
76761;SDS011;65705;51.032;13.790;2023-05-13T05:01:08;6.38;;;3.45;;
76761;SDS011;65705;51.032;13.790;2023-05-13T05:03:33;7.25;;;3.85;;
76761;SDS011;65705;51.032;13.790;2023-05-13T05:05:59;20.50;;;3.97;;
76761;SDS011;65705;51.032;13.790;2023-05-13T05:08:25;5.63;;;3.13;;
76761;SDS011;65705;51.032;13.790;2023-05-13T05:10:53;8.90;;;3.92;;
76761;SDS011;65705;51.032;13.790;2023-05-13T05:13:19;9.40;;;3.83;;
76761;SDS011;65705;51.032;13.790;2023-05-13T05:15:44;5.22;;;3.10;;
76761;SDS011;65705;51.032;13.790;2023-05-13T05:18:11;5.53;;;3.50;;
76761;SDS011;65705;51.032;13.790;2023-05-13T05:20:39;7.22;;;3.60;;
76761;SDS011;65705;51.032;13.790;2023-05-13T05:23:08;6.03;;;3.40;;
76761;SDS011;65705;51.032;13.790;2023-05-13T05:25:35;6.90;;;3.22;;
76761;SDS011;65705;51.032;13.790;2023-05-13T05:28:01;6.90;;;3.03;;
76761;SDS011;65705;51.032;13.790;2023-05-13T05:30:30;6.13;;;3.45;;
76761;SDS011;65705;51.032;13.790;2023-05-13T05:33:07;6.25;;;3.42;;
76761;SDS011;65705;51.032;13.790;2023-05-13T05:35:36;5.20;;;3.30;;
76761;SDS011;65705;51.032;13.790;2023-05-13T05:38:05;7.75;;;3.42;;
76761;SDS011;65705;51.032;13.790;2023-05-13T05:40:32;6.63;;;3.67;;
76761;SDS011;65705;51.032;13.790;2023-05-13T05:43:04;6.53;;;3.30;;
76761;SDS011;65705;51.032;13.790;2023-05-13T05:45:30;9.02;;;3.38;;
76761;SDS011;65705;51.032;13.790;2023-05-13T05:47:55;8.68;;;3.22;;
76761;SDS011;65705;51.032;13.790;2023-05-13T05:50:22;6.78;;;2.90;;
76761;SDS011;65705;51.032;13.790;2023-05-13T05:52:48;6.00;;;3.33;;
76761;SDS011;65705;51.032;13.790;2023-05-13T05:55:14;7.28;;;3.50;;
76761;SDS011;65705;51.032;13.790;2023-05-13T05:57:40;9.38;;;3.15;;
76761;SDS011;65705;51.032;13.790;2023-05-13T06:00:06;6.05;;;3.20;;
76761;SDS011;65705;51.032;13.790;2023-05-13T06:02:40;8.25;;;3.42;;
76761;SDS011;65705;51.032;13.790;2023-05-13T06:05:07;8.52;;;3.40;;
76761;SDS011;65705;51.032;13.790;2023-05-13T06:07:35;6.43;;;3.13;;
76761;SDS011;65705;51.032;13.790;2023-05-13T06:10:01;11.40;;;3.50;;
76761;SDS011;65705;51.032;13.790;2023-05-13T06:12:27;6.32;;;3.13;;
76761;SDS011;65705;51.032;13.790;2023-05-13T06:14:53;5.88;;;2.83;;
76761;SDS011;65705;51.032;13.790;2023-05-13T06:17:18;6.00;;;2.67;;
76761;SDS011;65705;51.032;13.790;2023-05-13T06:19:44;6.63;;;2.97;;
76761;SDS011;65705;51.032;13.790;2023-05-13T06:22:10;6.53;;;3.15;;
76761;SDS011;65705;51.032;13.790;2023-05-13T06:24:36;9.60;;;3.40;;
76761;SDS011;65705;51.032;13.790;2023-05-13T06:27:03;7.35;;;3.05;;
76761;SDS011;65705;51.032;13.790;2023-05-13T06:29:29;5.43;;;2.97;;
76761;SDS011;65705;51.032;13.790;2023-05-13T06:31:55;8.45;;;3.17;;
76761;SDS011;65705;51.032;13.790;2023-05-13T06:34:21;22.38;;;12.05;;
76761;SDS011;65705;51.032;13.790;2023-05-13T06:36:47;15.43;;;8.30;;
76761;SDS011;65705;51.032;13.790;2023-05-13T06:39:13;9.73;;;4.28;;
76761;SDS011;65705;51.032;13.790;2023-05-13T06:41:39;8.48;;;3.35;;
76761;SDS011;65705;51.032;13.790;2023-05-13T06:44:09;6.45;;;3.72;;
76761;SDS011;65705;51.032;13.790;2023-05-13T06:46:38;8.32;;;3.85;;
76761;SDS011;65705;51.032;13.790;2023-05-13T06:49:03;8.40;;;4.57;;
76761;SDS011;65705;51.032;13.790;2023-05-13T06:51:30;10.68;;;5.57;;
76761;SDS011;65705;51.032;13.790;2023-05-13T06:53:58;6.15;;;2.88;;
76761;SDS011;65705;51.032;13.790;2023-05-13T06:56:23;12.93;;;5.40;;
76761;SDS011;65705;51.032;13.790;2023-05-13T06:58:50;8.27;;;3.40;;
76761;SDS011;65705;51.032;13.790;2023-05-13T07:01:17;6.22;;;3.20;;
76761;SDS011;65705;51.032;13.790;2023-05-13T07:03:43;6.15;;;2.90;;
76761;SDS011;65705;51.032;13.790;2023-05-13T07:06:10;6.43;;;2.90;;
76761;SDS011;65705;51.032;13.790;2023-05-13T07:08:36;9.32;;;2.97;;
76761;SDS011;65705;51.032;13.790;2023-05-13T07:11:02;6.65;;;2.75;;
76761;SDS011;65705;51.032;13.790;2023-05-13T07:13:27;3.92;;;2.42;;
76761;SDS011;65705;51.032;13.790;2023-05-13T07:15:54;7.43;;;2.58;;
76761;SDS011;65705;51.032;13.790;2023-05-13T07:18:20;5.93;;;2.70;;
76761;SDS011;65705;51.032;13.790;2023-05-13T07:20:45;7.05;;;2.30;;
76761;SDS011;65705;51.032;13.790;2023-05-13T07:23:11;8.75;;;2.92;;
76761;SDS011;65705;51.032;13.790;2023-05-13T07:25:37;7.45;;;3.00;;
76761;SDS011;65705;51.032;13.790;2023-05-13T07:28:03;6.53;;;2.58;;
76761;SDS011;65705;51.032;13.790;2023-05-13T07:30:29;4.97;;;2.05;;
76761;SDS011;65705;51.032;13.790;2023-05-13T07:32:55;2.70;;;1.58;;
76761;SDS011;65705;51.032;13.790;2023-05-13T07:35:23;5.55;;;2.30;;
76761;SDS011;65705;51.032;13.790;2023-05-13T07:37:49;8.07;;;3.78;;
76761;SDS011;65705;51.032;13.790;2023-05-13T07:40:15;8.38;;;3.45;;
76761;SDS011;65705;51.032;13.790;2023-05-13T07:42:42;9.70;;;3.33;;
76761;SDS011;65705;51.032;13.790;2023-05-13T07:45:07;4.60;;;2.25;;
76761;SDS011;65705;51.032;13.790;2023-05-13T07:47:34;5.65;;;2.95;;
76761;SDS011;65705;51.032;13.790;2023-05-13T07:50:00;6.88;;;2.25;;
76761;SDS011;65705;51.032;13.790;2023-05-13T07:52:25;5.30;;;1.80;;
76761;SDS011;65705;51.032;13.790;2023-05-13T07:54:51;3.28;;;1.88;;
76761;SDS011;65705;51.032;13.790;2023-05-13T07:57:17;3.05;;;1.90;;
76761;SDS011;65705;51.032;13.790;2023-05-13T07:59:43;5.55;;;2.08;;
76761;SDS011;65705;51.032;13.790;2023-05-13T08:02:09;7.10;;;2.40;;
76761;SDS011;65705;51.032;13.790;2023-05-13T08:04:36;5.38;;;2.08;;
76761;SDS011;65705;51.032;13.790;2023-05-13T08:07:02;3.75;;;1.98;;
76761;SDS011;65705;51.032;13.790;2023-05-13T08:09:30;2.67;;;1.70;;
76761;SDS011;65705;51.032;13.790;2023-05-13T08:11:56;3.25;;;1.88;;
76761;SDS011;65705;51.032;13.790;2023-05-13T08:14:22;6.40;;;1.70;;
76761;SDS011;65705;51.032;13.790;2023-05-13T08:16:48;3.10;;;1.65;;
76761;SDS011;65705;51.032;13.790;2023-05-13T08:19:14;5.43;;;2.00;;
76761;SDS011;65705;51.032;13.790;2023-05-13T08:21:40;5.13;;;2.33;;
76761;SDS011;65705;51.032;13.790;2023-05-13T08:24:06;5.22;;;1.73;;
76761;SDS011;65705;51.032;13.790;2023-05-13T08:26:32;6.72;;;2.35;;
76761;SDS011;65705;51.032;13.790;2023-05-13T08:28:58;5.10;;;2.13;;
76761;SDS011;65705;51.032;13.790;2023-05-13T08:31:24;8.48;;;3.30;;
76761;SDS011;65705;51.032;13.790;2023-05-13T08:33:51;3.55;;;1.90;;
76761;SDS011;65705;51.032;13.790;2023-05-13T08:36:18;5.03;;;1.92;;
76761;SDS011;65705;51.032;13.790;2023-05-13T08:38:44;4.72;;;1.90;;
76761;SDS011;65705;51.032;13.790;2023-05-13T08:41:11;13.73;;;8.32;;
76761;SDS011;65705;51.032;13.790;2023-05-13T08:43:38;7.07;;;4.50;;
76761;SDS011;65705;51.032;13.790;2023-05-13T08:46:05;4.82;;;2.85;;
76761;SDS011;65705;51.032;13.790;2023-05-13T08:48:34;7.45;;;3.15;;
76761;SDS011;65705;51.032;13.790;2023-05-13T08:51:01;6.85;;;2.90;;
76761;SDS011;65705;51.032;13.790;2023-05-13T08:53:27;5.05;;;2.67;;
76761;SDS011;65705;51.032;13.790;2023-05-13T08:55:53;6.95;;;2.40;;
76761;SDS011;65705;51.032;13.790;2023-05-13T08:58:20;4.78;;;2.38;;
76761;SDS011;65705;51.032;13.790;2023-05-13T09:00:47;4.75;;;1.85;;
76761;SDS011;65705;51.032;13.790;2023-05-13T09:03:13;4.20;;;1.83;;
76761;SDS011;65705;51.032;13.790;2023-05-13T09:05:42;5.47;;;2.50;;
76761;SDS011;65705;51.032;13.790;2023-05-13T09:08:08;4.50;;;2.00;;
76761;SDS011;65705;51.032;13.790;2023-05-13T09:10:38;7.60;;;2.78;;
76761;SDS011;65705;51.032;13.790;2023-05-13T09:13:04;7.60;;;2.67;;
76761;SDS011;65705;51.032;13.790;2023-05-13T09:15:30;6.13;;;3.20;;
76761;SDS011;65705;51.032;13.790;2023-05-13T09:20:26;8.00;;;4.22;;
76761;SDS011;65705;51.032;13.790;2023-05-13T09:22:54;4.55;;;2.00;;
76761;SDS011;65705;51.032;13.790;2023-05-13T09:25:37;5.90;;;2.45;;
76761;SDS011;65705;51.032;13.790;2023-05-13T09:28:04;4.50;;;2.10;;
76761;SDS011;65705;51.032;13.790;2023-05-13T09:30:35;4.65;;;1.95;;
76761;SDS011;65705;51.032;13.790;2023-05-13T09:33:10;7.35;;;2.20;;
76761;SDS011;65705;51.032;13.790;2023-05-13T09:35:37;5.78;;;2.20;;
76761;SDS011;65705;51.032;13.790;2023-05-13T09:38:39;4.82;;;2.65;;
76761;SDS011;65705;51.032;13.790;2023-05-13T09:41:05;7.32;;;2.65;;
76761;SDS011;65705;51.032;13.790;2023-05-13T09:43:31;5.43;;;2.35;;
76761;SDS011;65705;51.032;13.790;2023-05-13T09:46:00;7.88;;;2.15;;
76761;SDS011;65705;51.032;13.790;2023-05-13T09:48:30;3.65;;;1.98;;
76761;SDS011;65705;51.032;13.790;2023-05-13T09:50:57;6.35;;;2.13;;
76761;SDS011;65705;51.032;13.790;2023-05-13T09:53:27;5.75;;;2.10;;
76761;SDS011;65705;51.032;13.790;2023-05-13T09:55:54;3.45;;;1.83;;
76761;SDS011;65705;51.032;13.790;2023-05-13T09:58:21;5.63;;;2.30;;
76761;SDS011;65705;51.032;13.790;2023-05-13T10:00:49;4.63;;;2.10;;
76761;SDS011;65705;51.032;13.790;2023-05-13T10:03:16;4.97;;;2.20;;
76761;SDS011;65705;51.032;13.790;2023-05-13T10:05:42;5.82;;;2.70;;
76761;SDS011;65705;51.032;13.790;2023-05-13T10:08:10;5.15;;;2.60;;
76761;SDS011;65705;51.032;13.790;2023-05-13T10:10:37;8.23;;;3.28;;
76761;SDS011;65705;51.032;13.790;2023-05-13T10:13:04;6.88;;;2.70;;
76761;SDS011;65705;51.032;13.790;2023-05-13T10:15:33;4.60;;;2.33;;
76761;SDS011;65705;51.032;13.790;2023-05-13T10:17:59;4.32;;;2.08;;
76761;SDS011;65705;51.032;13.790;2023-05-13T10:20:26;5.70;;;2.10;;
76761;SDS011;65705;51.032;13.790;2023-05-13T10:22:52;5.60;;;2.15;;
76761;SDS011;65705;51.032;13.790;2023-05-13T10:25:19;3.45;;;1.98;;
76761;SDS011;65705;51.032;13.790;2023-05-13T10:27:45;3.50;;;1.83;;
76761;SDS011;65705;51.032;13.790;2023-05-13T10:30:12;7.60;;;1.90;;
76761;SDS011;65705;51.032;13.790;2023-05-13T10:32:38;9.18;;;2.33;;
76761;SDS011;65705;51.032;13.790;2023-05-13T10:35:10;5.30;;;1.88;;
76761;SDS011;65705;51.032;13.790;2023-05-13T10:43:29;4.10;;;1.90;;
76761;SDS011;65705;51.032;13.790;2023-05-13T10:46:17;3.08;;;1.50;;
76761;SDS011;65705;51.032;13.790;2023-05-13T10:48:57;6.28;;;2.72;;
76761;SDS011;65705;51.032;13.790;2023-05-13T10:51:24;5.80;;;3.00;;
76761;SDS011;65705;51.032;13.790;2023-05-13T10:53:51;9.35;;;2.55;;
76761;SDS011;65705;51.032;13.790;2023-05-13T10:56:19;5.93;;;2.30;;
76761;SDS011;65705;51.032;13.790;2023-05-13T10:58:58;4.57;;;1.90;;
76761;SDS011;65705;51.032;13.790;2023-05-13T11:01:34;5.18;;;1.80;;
76761;SDS011;65705;51.032;13.790;2023-05-13T11:04:11;6.03;;;1.90;;
76761;SDS011;65705;51.032;13.790;2023-05-13T11:06:39;12.27;;;2.20;;
76761;SDS011;65705;51.032;13.790;2023-05-13T11:11:45;5.50;;;2.08;;
76761;SDS011;65705;51.032;13.790;2023-05-13T11:14:14;3.58;;;2.20;;
76761;SDS011;65705;51.032;13.790;2023-05-13T11:16:53;3.78;;;2.10;;
76761;SDS011;65705;51.032;13.790;2023-05-13T11:19:29;14.57;;;1.98;;
76761;SDS011;65705;51.032;13.790;2023-05-13T11:24:35;5.32;;;2.00;;
76761;SDS011;65705;51.032;13.790;2023-05-13T11:27:19;3.63;;;2.08;;
76761;SDS011;65705;51.032;13.790;2023-05-13T11:29:49;8.15;;;3.67;;
76761;SDS011;65705;51.032;13.790;2023-05-13T11:35:18;7.85;;;2.90;;
76761;SDS011;65705;51.032;13.790;2023-05-13T11:37:45;5.82;;;2.63;;
76761;SDS011;65705;51.032;13.790;2023-05-13T11:40:19;4.85;;;1.80;;
76761;SDS011;65705;51.032;13.790;2023-05-13T11:42:48;4.88;;;1.65;;
76761;SDS011;65705;51.032;13.790;2023-05-13T11:45:15;5.20;;;1.80;;
76761;SDS011;65705;51.032;13.790;2023-05-13T11:47:42;4.20;;;1.40;;
76761;SDS011;65705;51.032;13.790;2023-05-13T11:50:28;4.90;;;1.70;;
76761;SDS011;65705;51.032;13.790;2023-05-13T11:52:58;8.23;;;1.52;;
76761;SDS011;65705;51.032;13.790;2023-05-13T11:57:58;4.97;;;1.75;;
76761;SDS011;65705;51.032;13.790;2023-05-13T12:00:25;3.95;;;1.40;;
76761;SDS011;65705;51.032;13.790;2023-05-13T12:02:55;2.05;;;1.40;;
76761;SDS011;65705;51.032;13.790;2023-05-13T12:05:22;5.28;;;1.60;;
76761;SDS011;65705;51.032;13.790;2023-05-13T12:07:51;6.63;;;1.42;;
76761;SDS011;65705;51.032;13.790;2023-05-13T12:10:20;3.53;;;1.40;;
76761;SDS011;65705;51.032;13.790;2023-05-13T12:12:46;4.00;;;1.65;;
76761;SDS011;65705;51.032;13.790;2023-05-13T12:15:12;5.57;;;1.52;;
76761;SDS011;65705;51.032;13.790;2023-05-13T12:17:41;5.65;;;1.70;;
76761;SDS011;65705;51.032;13.790;2023-05-13T12:22:33;4.82;;;1.42;;
76761;SDS011;65705;51.032;13.790;2023-05-13T12:25:01;3.10;;;1.60;;
76761;SDS011;65705;51.032;13.790;2023-05-13T12:27:53;3.00;;;1.40;;
76761;SDS011;65705;51.032;13.790;2023-05-13T12:30:18;4.90;;;1.95;;
76761;SDS011;65705;51.032;13.790;2023-05-13T12:32:44;3.75;;;1.73;;
76761;SDS011;65705;51.032;13.790;2023-05-13T12:35:13;5.47;;;1.33;;
76761;SDS011;65705;51.032;13.790;2023-05-13T12:37:39;3.20;;;1.40;;
76761;SDS011;65705;51.032;13.790;2023-05-13T12:40:11;3.25;;;1.42;;
76761;SDS011;65705;51.032;13.790;2023-05-13T12:42:43;4.38;;;1.40;;
76761;SDS011;65705;51.032;13.790;2023-05-13T12:45:09;5.70;;;1.23;;
76761;SDS011;65705;51.032;13.790;2023-05-13T12:47:50;3.60;;;1.40;;
76761;SDS011;65705;51.032;13.790;2023-05-13T12:50:17;3.38;;;1.38;;
76761;SDS011;65705;51.032;13.790;2023-05-13T12:52:43;6.88;;;1.60;;
76761;SDS011;65705;51.032;13.790;2023-05-13T12:55:09;2.90;;;1.20;;
76761;SDS011;65705;51.032;13.790;2023-05-13T12:57:38;3.33;;;1.70;;
76761;SDS011;65705;51.032;13.790;2023-05-13T13:00:05;10.25;;;3.70;;
76761;SDS011;65705;51.032;13.790;2023-05-13T13:02:31;9.82;;;3.10;;
76761;SDS011;65705;51.032;13.790;2023-05-13T13:04:57;8.88;;;1.60;;
76761;SDS011;65705;51.032;13.790;2023-05-13T13:07:23;5.55;;;2.50;;
76761;SDS011;65705;51.032;13.790;2023-05-13T13:09:52;3.38;;;1.58;;
76761;SDS011;65705;51.032;13.790;2023-05-13T13:12:19;3.10;;;1.60;;
76761;SDS011;65705;51.032;13.790;2023-05-13T13:14:45;2.70;;;1.48;;
76761;SDS011;65705;51.032;13.790;2023-05-13T13:17:13;3.17;;;1.75;;
76761;SDS011;65705;51.032;13.790;2023-05-13T13:19:39;4.32;;;2.05;;
76761;SDS011;65705;51.032;13.790;2023-05-13T13:22:05;4.15;;;1.73;;
76761;SDS011;65705;51.032;13.790;2023-05-13T13:24:36;5.90;;;1.58;;
76761;SDS011;65705;51.032;13.790;2023-05-13T13:27:02;2.67;;;1.58;;
76761;SDS011;65705;51.032;13.790;2023-05-13T13:29:27;3.83;;;1.50;;
76761;SDS011;65705;51.032;13.790;2023-05-13T13:31:53;3.08;;;1.65;;
76761;SDS011;65705;51.032;13.790;2023-05-13T13:34:19;4.32;;;1.42;;
76761;SDS011;65705;51.032;13.790;2023-05-13T13:36:45;3.13;;;1.40;;
76761;SDS011;65705;51.032;13.790;2023-05-13T13:39:11;3.85;;;2.17;;
76761;SDS011;65705;51.032;13.790;2023-05-13T13:41:36;7.60;;;3.38;;
76761;SDS011;65705;51.032;13.790;2023-05-13T13:44:02;3.13;;;2.10;;
76761;SDS011;65705;51.032;13.790;2023-05-13T13:46:28;4.53;;;1.52;;
76761;SDS011;65705;51.032;13.790;2023-05-13T13:48:53;3.35;;;1.63;;
76761;SDS011;65705;51.032;13.790;2023-05-13T13:51:20;4.47;;;1.70;;
76761;SDS011;65705;51.032;13.790;2023-05-13T13:53:45;3.70;;;1.77;;
76761;SDS011;65705;51.032;13.790;2023-05-13T13:56:11;4.18;;;1.77;;
76761;SDS011;65705;51.032;13.790;2023-05-13T13:58:37;5.38;;;1.60;;
76761;SDS011;65705;51.032;13.790;2023-05-13T14:01:04;6.10;;;1.70;;
76761;SDS011;65705;51.032;13.790;2023-05-13T14:03:30;3.45;;;1.88;;
76761;SDS011;65705;51.032;13.790;2023-05-13T14:05:56;3.67;;;1.40;;
76761;SDS011;65705;51.032;13.790;2023-05-13T14:08:25;8.70;;;2.10;;
76761;SDS011;65705;51.032;13.790;2023-05-13T14:10:53;3.28;;;1.73;;
76761;SDS011;65705;51.032;13.790;2023-05-13T14:13:19;5.32;;;1.88;;
76761;SDS011;65705;51.032;13.790;2023-05-13T14:15:45;8.32;;;2.63;;
76761;SDS011;65705;51.032;13.790;2023-05-13T14:18:14;7.60;;;3.28;;
76761;SDS011;65705;51.032;13.790;2023-05-13T14:20:40;6.43;;;3.13;;
76761;SDS011;65705;51.032;13.790;2023-05-13T14:23:06;3.38;;;1.80;;
76761;SDS011;65705;51.032;13.790;2023-05-13T14:25:31;3.35;;;2.00;;
76761;SDS011;65705;51.032;13.790;2023-05-13T14:27:57;3.40;;;1.80;;
76761;SDS011;65705;51.032;13.790;2023-05-13T14:30:23;3.50;;;1.60;;
76761;SDS011;65705;51.032;13.790;2023-05-13T14:32:50;3.85;;;1.60;;
76761;SDS011;65705;51.032;13.790;2023-05-13T14:35:16;4.32;;;2.08;;
76761;SDS011;65705;51.032;13.790;2023-05-13T14:37:43;3.63;;;1.50;;
76761;SDS011;65705;51.032;13.790;2023-05-13T14:40:09;4.03;;;1.50;;
76761;SDS011;65705;51.032;13.790;2023-05-13T14:42:34;4.25;;;1.73;;
76761;SDS011;65705;51.032;13.790;2023-05-13T14:45:00;3.83;;;1.85;;
76761;SDS011;65705;51.032;13.790;2023-05-13T14:47:26;6.90;;;1.95;;
76761;SDS011;65705;51.032;13.790;2023-05-13T14:49:52;2.63;;;1.48;;
76761;SDS011;65705;51.032;13.790;2023-05-13T14:52:17;4.60;;;1.67;;
76761;SDS011;65705;51.032;13.790;2023-05-13T14:54:43;5.38;;;2.00;;
76761;SDS011;65705;51.032;13.790;2023-05-13T14:57:09;3.60;;;1.90;;
76761;SDS011;65705;51.032;13.790;2023-05-13T14:59:35;3.55;;;2.00;;
76761;SDS011;65705;51.032;13.790;2023-05-13T15:02:01;4.05;;;2.00;;